createdAt,value
2023-01-20T00:00:15.686Z,29.07
2023-01-20T00:03:18.415Z,30.23
2023-01-20T00:06:28.731Z,28.67
2023-01-20T00:09:32.162Z,24.43
2023-01-20T00:12:34.819Z,29.47
2023-01-20T00:15:37.533Z,23.73
2023-01-20T00:18:41.335Z,25.17
2023-01-20T00:21:45.562Z,23.93
2023-01-20T00:24:48.198Z,22.33
2023-01-20T00:27:54.344Z,24.43
2023-01-20T00:30:59.232Z,22.83
2023-01-20T00:34:02.780Z,25.73
2023-01-20T00:37:09.814Z,26.37
2023-01-20T00:40:13.675Z,23.77
2023-01-20T00:43:16.432Z,21.73
2023-01-20T00:46:26.663Z,21.87
2023-01-20T00:49:32.346Z,22.27
2023-01-20T00:52:38.110Z,22.83
2023-01-20T00:55:40.791Z,26.30
2023-01-20T00:58:45.539Z,26.10
2023-01-20T01:02:03.874Z,23.97
2023-01-20T01:05:12.721Z,30.83
2023-01-20T01:08:19.819Z,25.10
2023-01-20T01:11:24.790Z,23.80
2023-01-20T01:14:31.956Z,23.67
2023-01-20T01:17:39.284Z,19.50
2023-01-20T01:20:46.946Z,22.30
2023-01-20T01:23:51.849Z,21.40
2023-01-20T01:26:54.864Z,20.57
2023-01-20T01:29:57.480Z,21.70
2023-01-20T01:33:00.498Z,21.37
2023-01-20T01:36:04.794Z,20.80
2023-01-20T01:39:08.899Z,21.00
2023-01-20T01:42:16.214Z,20.43
2023-01-20T01:45:27.945Z,20.50
2023-01-20T01:48:34.728Z,19.57
2023-01-20T01:51:42.332Z,22.40
2023-01-20T01:54:46.499Z,20.83
2023-01-20T01:57:50.264Z,20.67
2023-01-20T02:00:57.847Z,21.93
2023-01-20T02:04:06.590Z,19.17
2023-01-20T02:07:12.778Z,14.70
2023-01-20T02:10:19.471Z,17.77
2023-01-20T02:13:22.287Z,20.13
2023-01-20T02:16:43.951Z,23.50
2023-01-20T02:20:26.659Z,20.23
2023-01-20T02:23:55.804Z,18.43
2023-01-20T02:27:09.414Z,16.50
2023-01-20T02:30:32.921Z,18.07
2023-01-20T02:33:42.107Z,19.60
2023-01-20T02:36:48.956Z,16.37
2023-01-20T02:39:59.841Z,20.60
2023-01-20T02:46:34.842Z,16.37
2023-01-20T02:49:42.151Z,22.47
2023-01-20T02:52:55.699Z,21.67
2023-01-20T02:55:58.555Z,20.10
2023-01-20T02:59:05.361Z,20.30
2023-01-20T03:02:11.935Z,18.07
2023-01-20T03:05:22.567Z,17.67
2023-01-20T03:08:27.991Z,17.13
2023-01-20T03:11:33.067Z,16.47
2023-01-20T03:14:37.013Z,16.27
2023-01-20T03:17:40.344Z,19.00
2023-01-20T03:20:44.469Z,17.23
2023-01-20T03:23:49.716Z,17.60
2023-01-20T03:26:53.270Z,20.30
2023-01-20T03:29:55.965Z,20.00
2023-01-20T03:32:58.826Z,19.57
2023-01-20T03:36:03.323Z,17.67
2023-01-20T03:39:06.732Z,20.97
2023-01-20T03:42:13.943Z,17.53
2023-01-20T03:45:25.469Z,18.50
2023-01-20T03:48:42.123Z,19.77
2023-01-20T03:51:58.048Z,18.00
2023-01-20T03:55:05.917Z,16.00
2023-01-20T03:58:12.767Z,18.13
2023-01-20T04:01:22.077Z,17.50
2023-01-20T04:04:29.903Z,19.60
2023-01-20T04:07:34.247Z,21.63
2023-01-20T04:10:41.954Z,21.70
2023-01-20T04:13:44.698Z,25.17
2023-01-20T04:16:53.261Z,27.77
2023-01-20T04:20:07.303Z,28.10
2023-01-20T04:23:18.696Z,30.07
2023-01-20T04:26:21.363Z,30.03
2023-01-20T04:29:24.061Z,31.27
2023-01-20T04:32:26.846Z,27.27
2023-01-20T04:35:31.660Z,30.47
2023-01-20T04:38:35.650Z,30.10
2023-01-20T04:41:38.471Z,31.50
2023-01-20T04:44:41.195Z,29.87
2023-01-20T04:47:44.155Z,33.50
2023-01-20T04:50:46.878Z,35.67
2023-01-20T04:53:57.846Z,34.93
2023-01-20T04:57:00.499Z,44.70
2023-01-20T05:00:06.533Z,32.63
2023-01-20T05:03:09.261Z,29.53
2023-01-20T05:06:12.668Z,28.27
2023-01-20T05:09:17.487Z,28.87
2023-01-20T05:12:22.537Z,29.33
2023-01-20T05:15:25.173Z,30.07
2023-01-20T05:18:27.823Z,31.37
2023-01-20T05:21:30.527Z,32.53
2023-01-20T05:24:34.601Z,35.63
2023-01-20T05:27:37.764Z,37.43
2023-01-20T05:30:43.012Z,41.10
2023-01-20T05:33:45.823Z,37.93
2023-01-20T05:36:52.340Z,37.93
2023-01-20T05:39:56.421Z,48.00
2023-01-20T05:43:00.182Z,42.90
2023-01-20T05:46:07.459Z,53.33
2023-01-20T05:49:11.473Z,40.57
2023-01-20T05:52:14.160Z,45.10
2023-01-20T05:55:18.238Z,46.93
2023-01-20T05:58:23.874Z,42.90
2023-01-20T06:01:26.953Z,40.50
2023-01-20T06:04:29.753Z,41.77
2023-01-20T06:07:34.545Z,42.67
2023-01-20T06:10:38.590Z,37.27
2023-01-20T06:13:43.576Z,42.77
2023-01-20T06:16:46.243Z,39.53
2023-01-20T06:20:14.198Z,42.97
2023-01-20T06:23:17.552Z,40.37
2023-01-20T06:26:21.618Z,41.17
2023-01-20T06:29:24.321Z,43.77
2023-01-20T06:32:27.449Z,45.63
2023-01-20T06:35:30.120Z,55.53
2023-01-20T06:38:35.064Z,48.90
2023-01-20T06:41:39.053Z,46.27
2023-01-20T06:44:41.729Z,44.20
2023-01-20T06:47:44.399Z,46.63
2023-01-20T06:50:47.028Z,44.47
2023-01-20T06:53:49.745Z,40.70
2023-01-20T06:56:53.786Z,35.23
2023-01-20T06:59:58.915Z,34.70
2023-01-20T07:03:02.071Z,37.70
2023-01-20T07:06:08.548Z,37.43
2023-01-20T07:09:13.679Z,35.13
2023-01-20T07:12:17.849Z,42.07
2023-01-20T07:15:20.620Z,37.77
2023-01-20T07:18:29.561Z,36.43
2023-01-20T07:21:32.459Z,53.80
2023-01-20T07:24:40.361Z,38.43
2023-01-20T07:27:44.376Z,52.60
2023-01-20T07:30:53.438Z,51.40
2023-01-20T07:33:56.825Z,54.17
2023-01-20T07:37:01.906Z,41.30
2023-01-20T07:40:07.387Z,35.63
2023-01-20T07:43:11.468Z,38.97
2023-01-20T07:46:14.877Z,38.80
2023-01-20T07:49:17.892Z,36.90
2023-01-20T07:52:20.872Z,40.90
2023-01-20T07:55:25.185Z,45.87
2023-01-20T07:58:29.985Z,39.17
2023-01-20T08:01:33.913Z,41.70
2023-01-20T08:04:40.717Z,37.43
2023-01-20T08:07:43.500Z,44.73
2023-01-20T08:10:49.024Z,37.20
2023-01-20T08:13:53.940Z,41.13
2023-01-20T08:16:56.644Z,39.67
2023-01-20T08:19:59.328Z,34.70
2023-01-20T08:23:02.007Z,36.40
2023-01-20T08:26:07.070Z,36.30
2023-01-20T08:29:11.295Z,30.80
2023-01-20T08:32:14.043Z,32.37
2023-01-20T08:35:19.579Z,31.80
2023-01-20T08:38:22.226Z,34.80
2023-01-20T08:41:27.684Z,33.33
2023-01-20T08:44:34.807Z,34.87
2023-01-20T08:47:39.846Z,40.60
2023-01-20T08:50:42.498Z,38.80
2023-01-20T08:53:45.719Z,36.83
2023-01-20T08:56:51.187Z,38.07
2023-01-20T08:59:55.821Z,37.77
2023-01-20T09:02:58.485Z,33.40
2023-01-20T09:06:03.357Z,36.43
2023-01-20T09:09:06.041Z,39.60
2023-01-20T09:12:09.190Z,43.97
2023-01-20T09:15:14.128Z,42.13
2023-01-20T09:18:17.497Z,37.63
2023-01-20T09:21:20.331Z,45.67
2023-01-20T09:24:23.352Z,36.70
2023-01-20T09:27:26.900Z,36.53
2023-01-20T09:30:31.164Z,36.20
2023-01-20T09:33:36.106Z,37.10
2023-01-20T09:36:46.802Z,36.10
2023-01-20T09:40:07.579Z,35.90
2023-01-20T09:43:42.814Z,44.10
2023-01-20T09:47:18.179Z,35.03
2023-01-20T09:50:50.284Z,38.70
2023-01-20T09:54:04.057Z,39.10
2023-01-20T09:57:09.136Z,35.27
2023-01-20T10:00:18.658Z,38.00
2023-01-20T10:03:36.903Z,42.30
2023-01-20T10:06:44.298Z,38.27
2023-01-20T10:10:04.531Z,37.60
2023-01-20T10:13:14.275Z,40.33
2023-01-20T10:16:28.373Z,37.10
2023-01-20T10:19:38.661Z,37.80
2023-01-20T10:22:49.967Z,35.63
2023-01-20T10:26:02.059Z,35.30
2023-01-20T10:29:12.803Z,38.47
2023-01-20T10:32:32.319Z,38.17
2023-01-20T10:35:40.119Z,34.20
2023-01-20T10:38:52.588Z,37.23
2023-01-20T10:42:03.350Z,32.60
2023-01-20T10:45:19.278Z,36.67
2023-01-20T10:48:38.231Z,34.30
2023-01-20T10:51:54.551Z,37.43
2023-01-20T10:55:06.155Z,39.77
2023-01-20T10:58:18.248Z,39.67
2023-01-20T11:01:22.172Z,35.43
2023-01-20T11:04:24.887Z,47.63
2023-01-20T11:07:30.149Z,44.17
2023-01-20T11:10:34.180Z,44.33
2023-01-20T11:13:36.855Z,49.53
2023-01-20T11:16:41.052Z,48.23
2023-01-20T11:19:53.086Z,46.47
2023-01-20T11:23:06.564Z,40.77
2023-01-20T11:26:25.595Z,43.30
2023-01-20T11:29:31.693Z,39.53
2023-01-20T11:32:36.687Z,46.40
2023-01-20T11:35:39.349Z,39.10
2023-01-20T11:38:49.163Z,53.70
2023-01-20T11:42:12.004Z,43.50
2023-01-20T11:45:27.495Z,38.50
2023-01-20T11:48:30.131Z,34.67
2023-01-20T11:51:32.728Z,41.63
2023-01-20T11:54:37.378Z,38.67
2023-01-20T11:57:44.667Z,83.50
2023-01-20T12:00:52.240Z,57.73
2023-01-20T12:04:35.032Z,31.97
2023-01-20T12:07:44.969Z,47.73
2023-01-20T12:10:50.714Z,23.43
2023-01-20T12:14:23.115Z,28.27
2023-01-20T12:17:58.591Z,25.90
2023-01-20T12:21:07.966Z,28.63
2023-01-20T12:24:19.566Z,28.00
2023-01-20T12:27:29.193Z,32.60
2023-01-20T12:30:56.902Z,31.57
2023-01-20T12:34:15.919Z,27.93
2023-01-20T12:37:32.560Z,28.93
2023-01-20T12:40:43.064Z,26.40
2023-01-20T12:43:59.777Z,27.43
2023-01-20T12:47:19.140Z,23.60
2023-01-20T12:50:35.576Z,21.60
2023-01-20T12:54:06.512Z,20.20
2023-01-20T12:57:22.199Z,24.33
2023-01-20T13:00:54.426Z,20.53
2023-01-20T13:04:24.593Z,29.13
2023-01-20T13:07:51.778Z,23.03
2023-01-20T13:11:08.668Z,23.50
2023-01-20T13:14:18.684Z,26.23
2023-01-20T13:17:29.076Z,22.03
2023-01-20T13:20:32.154Z,19.07
2023-01-20T13:23:37.780Z,14.30
2023-01-20T13:26:40.774Z,16.83
2023-01-20T13:29:57.490Z,12.13
2023-01-20T13:33:08.768Z,12.73
2023-01-20T13:36:18.160Z,21.20
2023-01-20T13:39:41.929Z,21.00
2023-01-20T13:42:50.539Z,19.10
2023-01-20T13:46:34.106Z,14.90
2023-01-20T13:49:50.630Z,10.30
2023-01-20T13:53:05.942Z,16.07
2023-01-20T13:56:25.538Z,12.33
2023-01-20T13:59:28.204Z,58.57
2023-01-20T14:02:37.385Z,13.43
2023-01-20T14:05:44.036Z,11.80
2023-01-20T14:08:51.656Z,14.33
2023-01-20T14:11:56.192Z,19.70
2023-01-20T14:14:59.712Z,13.30
2023-01-20T14:18:03.069Z,15.90
2023-01-20T14:21:19.970Z,19.87
2023-01-20T14:24:30.021Z,25.73
2023-01-20T14:27:35.613Z,17.43
2023-01-20T14:30:38.466Z,18.90
2023-01-20T14:33:49.270Z,27.97
2023-01-20T14:37:00.852Z,26.83
2023-01-20T14:40:20.538Z,27.90
2023-01-20T14:43:23.417Z,30.97
2023-01-20T14:46:30.026Z,21.53
2023-01-20T14:49:44.720Z,15.90
2023-01-20T14:52:49.014Z,19.93
2023-01-20T14:56:07.572Z,16.47
2023-01-20T14:59:19.877Z,19.53
2023-01-20T15:02:30.195Z,18.90
2023-01-20T15:05:34.683Z,21.90
2023-01-20T15:09:04.356Z,18.33
2023-01-20T15:12:35.507Z,19.77
2023-01-20T15:15:38.313Z,20.97
2023-01-20T15:18:41.521Z,25.43
2023-01-20T15:21:46.725Z,19.83
2023-01-20T15:24:51.955Z,19.17
2023-01-20T15:27:55.781Z,27.57
2023-01-20T15:31:00.231Z,21.63
2023-01-20T15:34:03.191Z,17.97
2023-01-20T15:37:12.545Z,22.17
2023-01-20T15:40:26.812Z,18.97
2023-01-20T15:43:29.612Z,19.23
2023-01-20T15:46:32.800Z,17.97
2023-01-20T15:49:35.731Z,17.33
2023-01-20T15:52:38.395Z,18.53
2023-01-20T15:55:47.226Z,18.63
2023-01-20T15:58:53.097Z,18.43
2023-01-20T16:01:55.816Z,18.97
2023-01-20T16:05:02.356Z,25.33
2023-01-20T16:08:13.206Z,48.87
2023-01-20T16:11:18.876Z,39.43
2023-01-20T16:14:21.734Z,19.67
2023-01-20T16:17:26.195Z,21.87
2023-01-20T16:20:30.904Z,30.43
2023-01-20T16:23:33.545Z,47.90
2023-01-20T16:26:37.556Z,62.23
2023-01-20T16:29:41.731Z,59.40
2023-01-20T16:32:46.210Z,78.80
2023-01-20T16:35:56.664Z,55.87
2023-01-20T16:38:59.500Z,44.60
2023-01-20T16:42:11.003Z,37.07
2023-01-20T16:45:24.367Z,29.23
2023-01-20T16:48:27.107Z,37.93
2023-01-20T16:51:31.357Z,34.33
2023-01-20T16:54:36.316Z,35.47
2023-01-20T16:57:44.491Z,35.90
2023-01-20T17:00:59.805Z,36.83
2023-01-20T17:04:07.771Z,31.03
2023-01-20T17:07:14.494Z,32.00
2023-01-20T17:10:19.165Z,42.97
2023-01-20T17:13:23.725Z,46.63
2023-01-20T17:16:31.812Z,66.33
2023-01-20T17:19:35.373Z,56.60
2023-01-20T17:22:39.840Z,54.80
2023-01-20T17:25:51.586Z,55.83
2023-01-20T17:29:02.470Z,76.57
2023-01-20T17:32:05.940Z,50.63
2023-01-20T17:35:08.995Z,102.33
2023-01-20T17:38:11.845Z,44.10
2023-01-20T17:41:15.421Z,38.47
2023-01-20T17:44:25.404Z,57.27
2023-01-20T17:47:29.977Z,38.40
2023-01-20T17:50:38.898Z,29.27
2023-01-20T17:53:44.709Z,56.80
2023-01-20T17:56:47.992Z,31.50
2023-01-20T17:59:52.252Z,23.87
2023-01-20T18:02:56.859Z,36.87
2023-01-20T18:06:03.426Z,25.67
2023-01-20T18:09:08.171Z,21.93
2023-01-20T18:12:10.933Z,24.87
2023-01-20T18:15:15.098Z,29.53
2023-01-20T18:18:17.953Z,33.00
2023-01-20T18:21:22.268Z,39.23
2023-01-20T18:24:24.937Z,31.20
2023-01-20T18:27:27.626Z,41.43
2023-01-20T18:30:32.033Z,35.70
2023-01-20T18:33:38.267Z,36.20
2023-01-20T18:36:44.987Z,49.67
2023-01-20T18:39:48.883Z,45.10
2023-01-20T18:42:51.692Z,34.90
2023-01-20T18:45:56.038Z,33.73
2023-01-20T18:48:58.795Z,40.17
2023-01-20T18:52:01.544Z,29.60
2023-01-20T18:55:04.510Z,35.47
2023-01-20T18:58:08.639Z,29.53
2023-01-20T19:01:18.486Z,25.17
2023-01-20T19:04:24.271Z,23.90
2023-01-20T19:07:27.142Z,27.67
2023-01-20T19:10:29.804Z,30.00
2023-01-20T19:13:33.327Z,29.67
2023-01-20T19:16:39.317Z,26.57
2023-01-20T19:19:49.545Z,27.73
2023-01-20T19:22:52.230Z,31.07
2023-01-20T19:26:03.429Z,33.33
2023-01-20T19:29:10.393Z,28.30
2023-01-20T19:32:15.352Z,47.33
2023-01-20T19:35:18.023Z,45.17
2023-01-20T19:38:20.684Z,30.77
2023-01-20T19:41:27.700Z,31.43
2023-01-20T19:44:30.533Z,31.67
2023-01-20T19:47:35.384Z,30.70
2023-01-20T19:50:38.470Z,32.90
2023-01-20T19:53:41.888Z,43.63
2023-01-20T19:56:44.674Z,54.87
2023-01-20T19:59:50.740Z,52.90
2023-01-20T20:02:55.305Z,48.57
2023-01-20T20:05:58.280Z,31.53
2023-01-20T20:09:03.269Z,28.20
2023-01-20T20:12:07.726Z,31.30
2023-01-20T20:15:11.069Z,32.27
2023-01-20T20:18:15.516Z,33.73
2023-01-20T20:21:18.315Z,32.03
2023-01-20T20:24:29.322Z,37.43
2023-01-20T20:27:31.941Z,41.83
2023-01-20T20:30:34.567Z,35.83
2023-01-20T20:33:38.807Z,39.50
2023-01-20T20:36:41.541Z,41.60
2023-01-20T20:39:44.357Z,39.00
2023-01-20T20:42:48.595Z,37.50
2023-01-20T20:45:51.456Z,40.20
2023-01-20T20:48:56.680Z,37.80
2023-01-20T20:51:59.331Z,36.13
2023-01-20T20:55:01.996Z,29.27
2023-01-20T20:58:04.918Z,33.83
2023-01-20T21:01:11.704Z,43.57
2023-01-20T21:04:15.677Z,39.60
2023-01-20T21:07:23.379Z,37.43
2023-01-20T21:10:26.066Z,40.20
2023-01-20T21:13:29.304Z,38.13
2023-01-20T21:16:31.977Z,41.23
2023-01-20T21:19:36.130Z,43.83
2023-01-20T21:22:39.197Z,39.43
2023-01-20T21:25:41.856Z,40.03
2023-01-20T21:28:44.901Z,42.90
2023-01-20T21:31:48.535Z,42.80
2023-01-20T21:34:55.306Z,45.07
2023-01-20T21:37:57.968Z,41.10
2023-01-20T21:41:08.273Z,45.90
2023-01-20T21:44:33.728Z,39.13
2023-01-20T21:47:36.431Z,44.93
2023-01-20T21:50:57.928Z,44.90
2023-01-20T21:54:00.531Z,39.73
2023-01-20T21:57:04.691Z,37.73
2023-01-20T22:00:10.554Z,40.13
2023-01-20T22:03:16.310Z,39.70
2023-01-20T22:06:20.283Z,42.93
2023-01-20T22:09:22.928Z,41.50
2023-01-20T22:12:25.832Z,38.77
2023-01-20T22:15:29.762Z,36.63
2023-01-20T22:18:32.740Z,36.50
2023-01-20T22:21:36.746Z,39.37
2023-01-20T22:24:39.449Z,38.70
2023-01-20T22:27:45.127Z,36.50
2023-01-20T22:30:47.920Z,40.73
2023-01-20T22:33:58.533Z,41.20
2023-01-20T22:37:02.596Z,38.93
2023-01-20T22:40:06.256Z,40.20
2023-01-20T22:43:08.920Z,38.70
2023-01-20T22:46:13.577Z,39.60
2023-01-20T22:49:16.267Z,41.70
2023-01-20T22:52:20.309Z,40.53
2023-01-20T22:55:25.374Z,40.83
2023-01-20T22:58:28.061Z,41.60
2023-01-20T23:01:32.764Z,38.90
2023-01-20T23:04:38.441Z,39.07
2023-01-20T23:07:44.714Z,38.70
2023-01-20T23:10:47.436Z,42.23
2023-01-20T23:13:50.566Z,38.07
2023-01-20T23:16:53.320Z,43.07
2023-01-20T23:19:56.565Z,46.13
2023-01-20T23:23:03.823Z,39.40
2023-01-20T23:26:08.694Z,40.13
2023-01-20T23:29:11.335Z,39.50
2023-01-20T23:32:14.977Z,39.47
2023-01-20T23:35:17.827Z,36.20
2023-01-20T23:38:25.605Z,37.83
2023-01-20T23:41:28.357Z,36.03
2023-01-20T23:44:30.997Z,38.23
2023-01-20T23:47:36.788Z,42.20
2023-01-20T23:50:41.056Z,39.17
2023-01-20T23:53:45.214Z,36.17
2023-01-20T23:56:47.889Z,36.70
2023-01-20T23:59:50.506Z,38.83
